createdAt,value
2018-09-06T00:01:51.734Z,12.69
2018-09-06T00:04:56.401Z,12.65
2018-09-06T00:08:00.786Z,12.62
2018-09-06T00:11:05.362Z,12.57
2018-09-06T00:14:09.709Z,12.58
2018-09-06T00:17:14.053Z,12.54
2018-09-06T00:20:18.456Z,12.56
2018-09-06T00:23:22.962Z,12.65
2018-09-06T00:26:27.431Z,12.65
2018-09-06T00:29:31.807Z,12.58
2018-09-06T00:32:36.174Z,12.51
2018-09-06T00:35:40.550Z,12.50
2018-09-06T00:38:44.983Z,12.45
2018-09-06T00:41:49.879Z,12.43
2018-09-06T00:44:54.336Z,12.39
2018-09-06T00:47:59.809Z,12.41
2018-09-06T00:51:04.226Z,12.40
2018-09-06T00:54:09.293Z,12.40
2018-09-06T00:57:13.660Z,12.40
2018-09-06T01:00:19.038Z,12.41
2018-09-06T01:03:23.457Z,12.34
2018-09-06T01:06:27.917Z,12.36
2018-09-06T01:09:32.324Z,12.33
2018-09-06T01:12:36.722Z,12.38
2018-09-06T01:15:41.142Z,12.35
2018-09-06T01:18:45.608Z,12.31
2018-09-06T01:21:50.076Z,12.28
2018-09-06T01:24:54.425Z,12.23
2018-09-06T01:27:58.944Z,12.15
2018-09-06T01:31:03.318Z,12.13
2018-09-06T01:34:07.676Z,12.19
2018-09-06T01:37:12.062Z,12.25
2018-09-06T01:40:16.385Z,12.20
2018-09-06T01:43:20.828Z,12.15
2018-09-06T01:46:26.251Z,12.14
2018-09-06T01:49:30.982Z,12.13
2018-09-06T01:52:35.355Z,12.09
2018-09-06T01:55:39.705Z,12.04
2018-09-06T01:58:44.120Z,12.05
2018-09-06T02:01:48.455Z,11.97
2018-09-06T02:04:52.778Z,11.98
2018-09-06T02:07:57.138Z,11.97
2018-09-06T02:11:01.463Z,12.02
2018-09-06T02:14:05.872Z,11.99
2018-09-06T02:17:10.200Z,11.96
2018-09-06T02:20:14.549Z,11.99
2018-09-06T02:23:18.872Z,11.99
2018-09-06T02:26:23.199Z,11.93
2018-09-06T02:29:27.530Z,11.87
2018-09-06T02:32:31.927Z,11.84
2018-09-06T02:35:36.977Z,11.83
2018-09-06T02:38:41.400Z,11.78
2018-09-06T02:41:45.726Z,11.75
2018-09-06T02:44:50.094Z,11.73
2018-09-06T02:47:54.937Z,11.70
2018-09-06T02:51:04.561Z,11.68
2018-09-06T02:54:08.928Z,11.63
2018-09-06T02:57:13.317Z,11.51
2018-09-06T03:00:22.262Z,11.47
2018-09-06T03:03:27.363Z,11.57
2018-09-06T03:06:32.515Z,11.51
2018-09-06T03:09:36.900Z,11.55
2018-09-06T03:12:41.299Z,11.44
2018-09-06T03:15:45.699Z,11.44
2018-09-06T03:18:50.234Z,11.44
2018-09-06T03:21:54.713Z,11.36
2018-09-06T03:24:59.153Z,11.31
2018-09-06T03:28:03.816Z,11.28
2018-09-06T03:31:09.978Z,11.28
2018-09-06T03:34:14.306Z,11.22
2018-09-06T03:37:18.778Z,11.21
2018-09-06T03:40:23.566Z,11.23
2018-09-06T03:43:27.918Z,11.20
2018-09-06T03:46:32.456Z,11.17
2018-09-06T03:49:36.795Z,11.21
2018-09-06T03:52:41.252Z,11.16
2018-09-06T03:55:45.805Z,11.09
2018-09-06T03:58:50.351Z,11.09
2018-09-06T04:01:55.575Z,11.09
2018-09-06T04:05:00.277Z,10.97
2018-09-06T04:08:04.615Z,11.01
2018-09-06T04:11:08.937Z,10.96
2018-09-06T04:14:13.536Z,10.91
2018-09-06T04:17:17.927Z,10.89
2018-09-06T04:20:22.404Z,10.88
2018-09-06T04:23:26.877Z,10.85
2018-09-06T04:26:31.357Z,10.77
2018-09-06T04:29:35.968Z,10.82
2018-09-06T04:32:40.296Z,10.87
2018-09-06T04:35:44.621Z,10.86
2018-09-06T04:38:49.378Z,10.91
2018-09-06T04:41:53.696Z,10.89
2018-09-06T04:44:58.051Z,10.94
2018-09-06T04:48:02.791Z,11.00
2018-09-06T04:51:07.498Z,10.96
2018-09-06T04:54:11.902Z,11.01
2018-09-06T04:57:16.422Z,11.12
2018-09-06T05:00:21.605Z,11.04
2018-09-06T05:03:25.916Z,11.01
2018-09-06T05:06:31.901Z,11.01
2018-09-06T05:09:36.279Z,11.07
2018-09-06T05:12:40.908Z,11.16
2018-09-06T05:15:45.265Z,11.23
2018-09-06T05:18:49.634Z,11.10
2018-09-06T05:21:53.991Z,11.34
2018-09-06T05:24:58.525Z,11.53
2018-09-06T05:28:03.211Z,11.56
2018-09-06T05:31:07.591Z,11.68
2018-09-06T05:34:13.026Z,11.69
2018-09-06T05:37:17.413Z,11.77
2018-09-06T05:40:21.758Z,11.93
2018-09-06T05:43:26.174Z,12.01
2018-09-06T05:46:32.316Z,12.20
2018-09-06T05:49:37.065Z,12.31
2018-09-06T05:52:41.510Z,12.42
2018-09-06T05:55:45.877Z,12.52
2018-09-06T05:58:50.285Z,12.70
2018-09-06T06:01:55.861Z,12.87
2018-09-06T06:05:00.180Z,13.08
2018-09-06T06:08:21.698Z,13.25
2018-09-06T06:11:26.053Z,13.49
2018-09-06T06:14:30.577Z,13.97
2018-09-06T06:17:34.934Z,15.35
2018-09-06T06:20:39.421Z,17.07
2018-09-06T06:23:44.606Z,18.16
2018-09-06T06:26:48.914Z,19.17
2018-09-06T06:29:53.285Z,19.77
2018-09-06T06:32:59.413Z,20.01
2018-09-06T06:36:03.731Z,20.62
2018-09-06T06:39:11.454Z,21.32
2018-09-06T06:42:15.962Z,22.21
2018-09-06T06:45:20.359Z,23.01
2018-09-06T06:48:25.761Z,23.56
2018-09-06T06:51:30.118Z,23.88
2018-09-06T06:54:34.650Z,23.96
2018-09-06T06:57:38.969Z,24.27
2018-09-06T07:00:43.881Z,24.60
2018-09-06T07:03:48.310Z,24.95
2018-09-06T07:06:53.116Z,25.33
2018-09-06T07:09:57.435Z,25.72
2018-09-06T07:13:01.803Z,25.86
2018-09-06T07:16:06.132Z,26.00
2018-09-06T07:19:10.517Z,26.13
2018-09-06T07:22:14.903Z,26.35
2018-09-06T07:25:19.481Z,26.52
2018-09-06T07:28:23.800Z,25.98
2018-09-06T07:31:28.238Z,25.69
2018-09-06T07:34:32.930Z,25.72
2018-09-06T07:37:38.220Z,25.67
2018-09-06T07:40:42.723Z,25.42
2018-09-06T07:43:47.222Z,25.09
2018-09-06T07:46:51.786Z,25.01
2018-09-06T07:49:56.210Z,24.53
2018-09-06T07:53:00.706Z,24.56
2018-09-06T07:56:05.381Z,24.97
2018-09-06T07:59:09.883Z,24.90
2018-09-06T08:02:14.373Z,24.37
2018-09-06T08:05:18.874Z,24.13
2018-09-06T08:08:23.410Z,24.21
2018-09-06T08:11:27.803Z,23.27
2018-09-06T08:14:32.372Z,23.28
2018-09-06T08:17:36.767Z,24.02
2018-09-06T08:20:41.357Z,23.55
2018-09-06T08:23:46.176Z,24.60
2018-09-06T08:26:50.716Z,24.71
2018-09-06T08:29:55.139Z,23.93
2018-09-06T08:32:59.702Z,23.87
2018-09-06T08:36:04.130Z,23.90
2018-09-06T08:39:11.000Z,23.88
2018-09-06T08:42:15.440Z,24.37
2018-09-06T08:45:20.037Z,24.77
2018-09-06T08:48:24.687Z,24.86
2018-09-06T08:51:29.290Z,24.72
2018-09-06T08:54:33.802Z,24.55
2018-09-06T08:57:38.189Z,24.28
2018-09-06T09:00:46.645Z,24.18
2018-09-06T09:03:51.091Z,24.03
2018-09-06T09:06:55.739Z,24.22
2018-09-06T09:10:00.653Z,24.15
2018-09-06T09:13:05.230Z,24.00
2018-09-06T09:16:10.145Z,23.69
2018-09-06T09:19:14.541Z,23.65
2018-09-06T09:22:19.077Z,23.37
2018-09-06T09:25:23.747Z,23.51
2018-09-06T09:28:28.398Z,23.79
2018-09-06T09:31:33.285Z,23.79
2018-09-06T09:34:37.702Z,23.93
2018-09-06T09:37:42.580Z,23.85
2018-09-06T09:40:47.284Z,23.47
2018-09-06T09:43:52.146Z,23.71
2018-09-06T09:50:00.787Z,24.16
2018-09-06T09:53:05.234Z,24.18
2018-09-06T09:56:09.608Z,24.26
2018-09-06T09:59:14.163Z,24.15
2018-09-06T10:02:23.853Z,24.27
2018-09-06T10:06:32.057Z,24.32
2018-09-06T10:09:36.537Z,23.97
2018-09-06T10:13:16.500Z,24.06
2018-09-06T10:16:21.322Z,23.85
2018-09-06T10:19:26.781Z,24.19
2018-09-06T10:22:31.434Z,24.24
2018-09-06T10:25:36.389Z,24.44
2018-09-06T10:28:40.888Z,24.36
2018-09-06T10:31:45.349Z,24.40
2018-09-06T10:34:49.856Z,24.44
2018-09-06T10:37:54.476Z,24.42
2018-09-06T10:40:58.996Z,23.92
2018-09-06T10:44:03.833Z,23.47
2018-09-06T10:47:08.617Z,23.43
2018-09-06T10:50:13.446Z,23.73
2018-09-06T10:53:18.468Z,23.78
2018-09-06T10:56:23.324Z,23.76
2018-09-06T10:59:28.452Z,24.01
2018-09-06T11:02:33.479Z,23.89
2018-09-06T11:05:38.173Z,24.07
2018-09-06T11:08:42.625Z,24.04
2018-09-06T11:11:47.160Z,23.99
2018-09-06T11:14:51.785Z,24.01
2018-09-06T11:17:56.173Z,24.04
2018-09-06T11:21:00.656Z,24.03
2018-09-06T11:24:05.012Z,24.08
2018-09-06T11:27:09.612Z,23.97
2018-09-06T11:30:14.343Z,24.07
2018-09-06T11:33:20.068Z,23.88
2018-09-06T11:36:24.561Z,23.90
2018-09-06T11:39:28.980Z,23.67
2018-09-06T11:42:33.711Z,23.69
2018-09-06T11:45:38.784Z,23.83
2018-09-06T11:48:43.174Z,23.98
2018-09-06T11:51:47.658Z,23.94
2018-09-06T11:54:52.774Z,23.83
2018-09-06T11:57:57.331Z,23.63
2018-09-06T12:01:01.905Z,23.67
2018-09-06T12:04:07.120Z,23.58
2018-09-06T12:07:11.697Z,23.56
2018-09-06T12:10:16.074Z,23.60
2018-09-06T12:13:20.865Z,23.80
2018-09-06T12:16:25.425Z,23.91
2018-09-06T12:19:30.449Z,23.99
2018-09-06T12:22:34.820Z,24.03
2018-09-06T12:25:39.323Z,23.86
2018-09-06T12:28:44.211Z,23.77
2018-09-06T12:31:48.824Z,23.81
2018-09-06T12:34:53.178Z,23.97
2018-09-06T12:37:58.074Z,24.03
2018-09-06T12:41:02.467Z,24.08
2018-09-06T12:44:07.169Z,24.09
2018-09-06T12:47:12.517Z,24.07
2018-09-06T12:50:18.978Z,24.03
2018-09-06T12:53:25.116Z,23.99
2018-09-06T12:56:30.235Z,24.04
2018-09-06T12:59:35.228Z,24.10
2018-09-06T13:02:40.404Z,24.12
2018-09-06T13:05:45.530Z,24.13
2018-09-06T13:08:50.107Z,24.19
2018-09-06T13:11:55.358Z,24.22
2018-09-06T13:15:00.909Z,24.28
2018-09-06T13:18:06.655Z,24.34
2018-09-06T13:21:12.514Z,24.39
2018-09-06T13:24:17.883Z,24.39
2018-09-06T13:27:23.231Z,24.35
2018-09-06T13:30:28.824Z,24.32
2018-09-06T13:33:33.404Z,24.36
2018-09-06T13:36:38.078Z,24.32
2018-09-06T13:39:42.811Z,24.37
2018-09-06T13:42:47.353Z,24.43
2018-09-06T13:45:52.933Z,24.53
2018-09-06T13:48:57.598Z,24.47
2018-09-06T13:52:02.794Z,24.46
2018-09-06T13:55:07.853Z,24.40
2018-09-06T13:58:15.430Z,24.36
2018-09-06T14:01:22.710Z,24.43
2018-09-06T14:04:28.589Z,24.49
2018-09-06T14:07:33.798Z,24.51
2018-09-06T14:10:38.651Z,24.51
2018-09-06T14:13:44.693Z,24.51
2018-09-06T14:16:50.296Z,24.57
2018-09-06T14:19:55.779Z,24.60
2018-09-06T14:23:02.089Z,24.57
2018-09-06T14:26:10.094Z,24.59
2018-09-06T14:29:15.073Z,24.59
2018-09-06T14:32:20.764Z,24.61
2018-09-06T14:35:26.655Z,24.56
2018-09-06T14:38:31.347Z,24.57
2018-09-06T14:41:36.665Z,24.71
2018-09-06T14:44:41.080Z,24.67
2018-09-06T14:47:46.440Z,24.62
2018-09-06T14:50:50.999Z,24.60
2018-09-06T14:53:56.447Z,24.61
2018-09-06T14:57:01.761Z,24.75
2018-09-06T15:00:06.365Z,24.64
2018-09-06T15:03:11.283Z,24.57
2018-09-06T15:06:18.629Z,24.57
2018-09-06T15:09:24.047Z,24.54
2018-09-06T15:12:29.024Z,24.47
2018-09-06T15:15:35.288Z,24.36
2018-09-06T15:18:40.454Z,24.33
2018-09-06T15:21:45.477Z,24.24
2018-09-06T15:24:52.291Z,24.17
2018-09-06T15:27:56.798Z,24.20
2018-09-06T15:31:25.520Z,24.16
2018-09-06T15:34:30.380Z,24.08
2018-09-06T15:37:34.912Z,24.12
2018-09-06T15:40:39.624Z,24.09
2018-09-06T15:43:44.810Z,24.11
2018-09-06T15:46:49.213Z,23.99
2018-09-06T15:49:53.441Z,23.92
2018-09-06T15:52:58.856Z,23.88
2018-09-06T15:56:03.317Z,23.73
2018-09-06T15:59:07.837Z,23.67
2018-09-06T16:02:12.303Z,23.54
2018-09-06T16:05:16.967Z,23.48
2018-09-06T16:08:21.618Z,23.40
2018-09-06T16:11:26.698Z,23.30
2018-09-06T16:14:31.317Z,23.28
2018-09-06T16:17:35.884Z,23.22
2018-09-06T16:20:40.870Z,23.11
2018-09-06T16:23:45.615Z,23.03
2018-09-06T16:26:50.926Z,22.97
2018-09-06T16:29:55.632Z,22.96
2018-09-06T16:33:00.386Z,22.87
2018-09-06T16:36:04.892Z,22.71
2018-09-06T16:39:10.739Z,22.56
2018-09-06T16:42:16.255Z,22.48
2018-09-06T16:45:20.743Z,22.26
2018-09-06T16:48:25.492Z,22.16
2018-09-06T16:51:29.837Z,21.95
2018-09-06T16:54:34.259Z,21.69
2018-09-06T16:57:38.767Z,21.62
2018-09-06T17:00:43.488Z,21.45
2018-09-06T17:03:47.968Z,21.30
2018-09-06T17:06:52.922Z,21.08
2018-09-06T17:09:57.349Z,20.88
2018-09-06T17:13:02.179Z,20.74
2018-09-06T17:16:07.071Z,20.64
2018-09-06T17:19:11.576Z,20.47
2018-09-06T17:22:16.146Z,20.34
2018-09-06T17:25:20.556Z,20.20
2018-09-06T17:28:25.244Z,19.97
2018-09-06T17:31:29.850Z,19.76
2018-09-06T17:34:34.253Z,19.65
2018-09-06T17:37:38.997Z,19.48
2018-09-06T17:40:43.497Z,19.41
2018-09-06T17:43:48.108Z,19.33
2018-09-06T17:46:52.617Z,19.22
2018-09-06T17:49:57.592Z,19.08
2018-09-06T17:53:02.061Z,18.95
2018-09-06T17:56:06.718Z,18.83
2018-09-06T17:59:11.137Z,18.85
2018-09-06T18:02:16.388Z,18.74
2018-09-06T18:05:20.939Z,18.68
2018-09-06T18:08:25.335Z,18.68
2018-09-06T18:11:30.373Z,18.57
2018-09-06T18:14:35.121Z,18.56
2018-09-06T18:17:39.651Z,18.52
2018-09-06T18:20:44.318Z,18.52
2018-09-06T18:23:48.860Z,18.48
2018-09-06T18:26:53.309Z,18.43
2018-09-06T18:29:58.201Z,18.43
2018-09-06T18:33:02.713Z,18.47
2018-09-06T18:36:07.542Z,18.52
2018-09-06T18:39:12.231Z,18.54
2018-09-06T18:42:17.359Z,18.58
2018-09-06T18:45:22.578Z,18.57
2018-09-06T18:48:27.065Z,18.67
2018-09-06T18:51:31.597Z,18.71
2018-09-06T18:54:36.088Z,18.79
2018-09-06T18:57:40.642Z,18.94
2018-09-06T19:00:45.179Z,18.92
2018-09-06T19:03:49.567Z,18.99
2018-09-06T19:06:54.434Z,18.97
2018-09-06T19:09:58.941Z,18.93
2018-09-06T19:13:03.418Z,18.91
2018-09-06T19:16:08.162Z,18.92
2018-09-06T19:19:12.769Z,18.96
2018-09-06T19:22:17.145Z,18.79
2018-09-06T19:25:22.174Z,18.80
2018-09-06T19:28:26.645Z,18.70
2018-09-06T19:31:32.936Z,18.64
2018-09-06T19:34:37.339Z,18.63
2018-09-06T19:37:41.694Z,18.60
2018-09-06T19:40:46.125Z,18.38
2018-09-06T19:43:50.622Z,18.39
2018-09-06T19:46:55.317Z,18.43
2018-09-06T19:50:00.076Z,18.25
2018-09-06T19:53:05.621Z,18.21
2018-09-06T19:56:10.781Z,18.11
2018-09-06T19:59:15.662Z,18.11
2018-09-06T20:02:20.049Z,18.01
2018-09-06T20:05:24.493Z,17.98
2018-09-06T20:08:29.912Z,17.82
2018-09-06T20:11:34.430Z,17.71
2018-09-06T20:14:38.829Z,17.52
2018-09-06T20:17:43.443Z,17.43
2018-09-06T20:20:48.792Z,17.32
2018-09-06T20:23:54.853Z,17.38
2018-09-06T20:27:00.257Z,17.21
2018-09-06T20:30:04.712Z,17.04
2018-09-06T20:33:09.168Z,16.92
2018-09-06T20:36:14.543Z,16.85
2018-09-06T20:39:19.028Z,16.90
2018-09-06T20:42:23.529Z,16.95
2018-09-06T20:45:27.934Z,16.88
2018-09-06T20:48:32.558Z,16.93
2018-09-06T20:51:38.142Z,16.94
2018-09-06T20:54:42.695Z,16.76
2018-09-06T20:57:48.408Z,16.71
2018-09-06T21:00:52.955Z,16.61
2018-09-06T21:03:57.725Z,16.67
2018-09-06T21:07:03.124Z,16.65
2018-09-06T21:10:09.262Z,16.67
2018-09-06T21:13:14.470Z,16.48
2018-09-06T21:16:18.973Z,16.30
2018-09-06T21:19:23.382Z,16.30
2018-09-06T21:22:27.914Z,16.14
2018-09-06T21:25:32.979Z,16.17
2018-09-06T21:28:37.522Z,16.05
2018-09-06T21:31:42.030Z,16.15
2018-09-06T21:34:47.789Z,16.29
2018-09-06T21:37:52.272Z,16.11
2018-09-06T21:40:57.337Z,16.05
2018-09-06T21:44:03.743Z,16.04
2018-09-06T21:47:09.609Z,15.96
2018-09-06T21:50:14.286Z,15.90
2018-09-06T21:53:18.744Z,15.94
2018-09-06T21:56:23.124Z,15.93
2018-09-06T21:59:27.914Z,16.00
2018-09-06T22:02:37.490Z,16.03
2018-09-06T22:05:41.872Z,16.03
2018-09-06T22:08:46.236Z,16.01
2018-09-06T22:11:51.363Z,16.07
2018-09-06T22:14:56.947Z,16.16
2018-09-06T22:18:01.309Z,16.15
2018-09-06T22:21:06.730Z,16.22
2018-09-06T22:24:11.074Z,16.16
2018-09-06T22:27:15.769Z,16.16
2018-09-06T22:30:20.414Z,16.20
2018-09-06T22:33:25.060Z,16.14
2018-09-06T22:36:29.630Z,16.28
2018-09-06T22:39:41.030Z,16.22
2018-09-06T22:42:45.405Z,16.23
2018-09-06T22:45:49.982Z,16.20
2018-09-06T22:48:54.454Z,16.20
2018-09-06T22:51:58.822Z,16.24
2018-09-06T22:55:03.423Z,16.19
2018-09-06T22:58:07.797Z,16.20
2018-09-06T23:01:12.236Z,16.10
2018-09-06T23:04:16.824Z,16.08
2018-09-06T23:07:21.259Z,16.09
2018-09-06T23:10:25.687Z,16.14
2018-09-06T23:13:30.153Z,16.13
2018-09-06T23:16:34.605Z,16.11
2018-09-06T23:19:39.058Z,16.06
2018-09-06T23:22:43.623Z,16.04
2018-09-06T23:25:48.061Z,15.99
2018-09-06T23:28:52.562Z,16.02
2018-09-06T23:31:58.067Z,15.91
2018-09-06T23:35:02.741Z,15.93
2018-09-06T23:38:07.339Z,15.84
2018-09-06T23:41:11.871Z,15.76
2018-09-06T23:44:16.965Z,15.70
2018-09-06T23:47:21.956Z,15.57
2018-09-06T23:50:28.138Z,15.54
2018-09-06T23:53:32.526Z,15.76
2018-09-06T23:56:37.005Z,15.68
2018-09-06T23:59:41.495Z,15.68
